首页
METAR-TAF:

METAR-TAF

机场 :

麦卡伦国际机场

拉斯维加斯, 内华达州, 美国

纬度: 36-04-44N, 经度: 115-09-19W, 海拔: 663米

当前天气观测

该预报发布于22分钟前的10:56 UTC
风速10节,风向,有时为19节阵风
温度 18°C
湿度 39%
气压 1007 hPa
能見度: 16.1公里
天空无云

METAR: KLAS 211056Z 19010G19KT 10SM CLR 18/04 A2974 RMK AO2 SLP049 T01780039 $

时间: 04:18 (11:18 UTC)

预报

该预报发布于2小时和32分钟前的08:46 UTC
预报有效从21日的 09点(UTC)到 22日的 12点(UTC)
风速12节,风向
能見度: 10公里
天空无云
从 21日的 1100点(UTC)
风速8节,风向西南
能見度: 10公里
天空无云
从 21日的 2000点(UTC)
风速12节,风向西转西南,有时为18节阵风
能見度: 10公里
散云层高于20000英尺
从 22日的 0300点(UTC)
风速10节,风向西北
能見度: 10公里
散云层高于20000英尺

TAF: KLAS 210846Z 2109/2212 19012KT P6SM SKC FM211100 22008KT P6SM SKC FM212000 24012G18KT P6SM SCT200 FM220300 32010KT P6SM SCT200

超过4000个机场的气象观测和天气预报(METAR&TAF报告)。

可查询的气象台以黄色和红色小点在地图上表示。

将鼠标移到小点上方,可查看气象台名称。

然后点击查看天气观测和预报。

如需切换地图:点击带黑十字的绿色按钮放大地图;点击带横线的绿色按钮缩小地图;或者点击绿色箭头查看邻近地区的地图。


METAR-TAF: